createdAt,value
2019-01-02T00:01:52.864Z,57.97
2019-01-02T00:04:24.323Z,58.33
2019-01-02T00:06:55.613Z,58.63
2019-01-02T00:09:26.737Z,58.63
2019-01-02T00:11:58.369Z,59.44
2019-01-02T00:14:29.509Z,59.69
2019-01-02T00:17:00.973Z,59.99
2019-01-02T00:19:32.119Z,59.49
2019-01-02T00:22:03.389Z,59.97
2019-01-02T00:24:34.552Z,59.68
2019-01-02T00:27:17.099Z,59.58
2019-01-02T00:29:48.484Z,59.40
2019-01-02T00:32:19.727Z,59.38
2019-01-02T00:34:51.016Z,58.91
2019-01-02T00:37:22.301Z,59.45
2019-01-02T00:39:53.686Z,59.45
2019-01-02T00:42:25.044Z,59.35
2019-01-02T00:44:56.306Z,58.70
2019-01-02T00:47:27.767Z,58.04
2019-01-02T00:49:58.954Z,58.80
2019-01-02T00:52:30.622Z,58.54
2019-01-02T00:55:01.889Z,58.30
2019-01-02T00:57:33.340Z,57.62
2019-01-02T01:00:05.191Z,57.62
2019-01-02T01:02:36.918Z,57.40
2019-01-02T01:05:08.109Z,57.40
2019-01-02T01:07:39.619Z,58.30
2019-01-02T01:10:13.702Z,57.92
2019-01-02T01:12:45.398Z,58.09
2019-01-02T01:15:16.752Z,58.09
2019-01-02T01:17:48.142Z,58.51
2019-01-02T01:20:20.907Z,57.86
2019-01-02T01:22:53.155Z,58.75
2019-01-02T01:25:25.541Z,58.75
2019-01-02T01:27:56.757Z,60.77
2019-01-02T01:30:27.995Z,61.34
2019-01-02T01:32:59.334Z,61.70
2019-01-02T01:35:30.666Z,61.48
2019-01-02T01:38:02.033Z,61.62
2019-01-02T01:40:33.244Z,61.62
2019-01-02T01:43:04.584Z,61.96
2019-01-02T01:45:35.983Z,61.39
2019-01-02T01:48:07.305Z,61.39
2019-01-02T01:50:38.406Z,61.83
2019-01-02T01:53:10.119Z,61.84
2019-01-02T01:55:41.534Z,61.70
2019-01-02T01:58:13.246Z,62.23
2019-01-02T02:00:44.583Z,62.23
2019-01-02T02:03:15.887Z,61.89
2019-01-02T02:05:46.926Z,62.41
2019-01-02T02:08:18.188Z,62.41
2019-01-02T02:10:49.343Z,62.34
2019-01-02T02:13:21.069Z,62.47
2019-01-02T02:15:52.503Z,62.42
2019-01-02T02:18:23.603Z,62.05
2019-01-02T02:20:55.225Z,61.88
2019-01-02T02:23:26.931Z,60.88
2019-01-02T02:25:58.051Z,61.19
2019-01-02T02:28:29.623Z,61.19
2019-01-02T02:31:00.936Z,61.66
2019-01-02T02:33:32.483Z,61.47
2019-01-02T02:36:04.072Z,61.50
2019-01-02T02:38:35.388Z,60.89
2019-01-02T02:41:06.958Z,60.45
2019-01-02T02:43:38.743Z,59.93
2019-01-02T02:46:11.021Z,60.29
2019-01-02T02:48:42.214Z,60.25
2019-01-02T02:51:13.750Z,60.25
2019-01-02T02:53:46.757Z,59.73
2019-01-02T02:56:18.305Z,60.08
2019-01-02T02:58:49.812Z,60.14
2019-01-02T03:01:21.329Z,59.76
2019-01-02T03:03:52.750Z,60.79
2019-01-02T03:06:27.385Z,60.79
2019-01-02T03:08:56.948Z,60.48
2019-01-02T03:11:28.489Z,60.48
2019-01-02T03:13:59.937Z,60.90
2019-01-02T03:16:31.327Z,60.90
2019-01-02T03:19:02.986Z,60.76
2019-01-02T03:21:34.470Z,60.87
2019-01-02T03:24:05.879Z,60.95
2019-01-02T03:26:37.040Z,60.65
2019-01-02T03:29:08.517Z,60.87
2019-01-02T03:31:41.101Z,60.87
2019-01-02T03:34:12.607Z,60.89
2019-01-02T03:36:43.787Z,60.65
2019-01-02T03:39:14.913Z,60.49
2019-01-02T03:41:46.096Z,60.49
2019-01-02T03:44:18.339Z,60.37
2019-01-02T03:46:49.661Z,59.95
2019-01-02T03:49:20.886Z,61.35
2019-01-02T03:51:52.121Z,61.35
2019-01-02T03:54:23.416Z,61.67
2019-01-02T03:56:54.742Z,61.84
2019-01-02T03:59:26.228Z,61.26
2019-01-02T04:01:57.522Z,60.64
2019-01-02T04:04:28.771Z,60.89
2019-01-02T04:07:00.098Z,60.89
2019-01-02T04:09:31.361Z,60.94
2019-01-02T04:12:02.632Z,60.99
2019-01-02T04:14:33.680Z,60.95
2019-01-02T04:17:04.948Z,61.47
2019-01-02T04:19:36.088Z,61.06
2019-01-02T04:22:07.316Z,61.03
2019-01-02T04:24:38.658Z,60.14
2019-01-02T04:27:10.658Z,60.32
2019-01-02T04:29:42.071Z,61.26
2019-01-02T04:32:14.865Z,61.23
2019-01-02T04:34:46.163Z,61.28
2019-01-02T04:37:17.344Z,61.12
2019-01-02T04:39:48.684Z,61.28
2019-01-02T04:42:19.913Z,61.27
2019-01-02T04:44:51.288Z,61.47
2019-01-02T04:47:22.497Z,62.04
2019-01-02T04:49:53.696Z,62.30
2019-01-02T04:52:24.925Z,62.30
2019-01-02T04:54:56.238Z,62.50
2019-01-02T04:57:27.549Z,62.51
2019-01-02T04:59:58.839Z,62.13
2019-01-02T05:02:32.701Z,62.84
2019-01-02T05:05:03.889Z,63.05
2019-01-02T05:07:35.139Z,62.40
2019-01-02T05:10:07.820Z,62.87
2019-01-02T05:12:41.280Z,63.15
2019-01-02T05:15:12.704Z,62.75
2019-01-02T05:17:43.924Z,62.24
2019-01-02T05:20:16.661Z,63.12
2019-01-02T05:22:47.950Z,63.62
2019-01-02T05:25:20.884Z,64.32
2019-01-02T05:27:52.061Z,64.04
2019-01-02T05:30:25.644Z,64.08
2019-01-02T05:32:56.992Z,63.75
2019-01-02T05:35:28.293Z,62.74
2019-01-02T05:37:59.669Z,62.80
2019-01-02T05:40:31.030Z,62.68
2019-01-02T05:43:02.136Z,62.22
2019-01-02T05:45:35.386Z,62.69
2019-01-02T05:48:06.539Z,63.70
2019-01-02T05:50:37.795Z,64.01
2019-01-02T05:53:09.171Z,64.06
2019-01-02T05:55:40.437Z,63.44
2019-01-02T05:58:11.494Z,63.55
2019-01-02T06:00:42.867Z,64.29
2019-01-02T06:03:14.116Z,64.32
2019-01-02T06:05:45.432Z,64.44
2019-01-02T06:08:16.678Z,64.43
2019-01-02T06:10:47.710Z,64.31
2019-01-02T06:13:18.847Z,64.70
2019-01-02T06:15:50.131Z,64.82
2019-01-02T06:18:21.290Z,64.35
2019-01-02T06:20:52.453Z,64.47
2019-01-02T06:23:23.512Z,64.42
2019-01-02T06:25:54.701Z,64.43
2019-01-02T06:28:25.902Z,64.48
2019-01-02T06:30:57.124Z,64.50
2019-01-02T06:33:28.241Z,64.24
2019-01-02T06:35:59.431Z,64.31
2019-01-02T06:38:30.640Z,63.98
2019-01-02T06:41:01.918Z,63.00
2019-01-02T06:43:33.037Z,62.20
2019-01-02T06:46:04.332Z,61.83
2019-01-02T06:48:35.509Z,61.83
2019-01-02T06:51:06.698Z,61.23
2019-01-02T06:53:38.025Z,60.50
2019-01-02T06:56:09.228Z,60.50
2019-01-02T06:58:40.446Z,59.41
2019-01-02T07:01:11.538Z,58.89
2019-01-02T07:03:42.891Z,58.14
2019-01-02T07:06:14.169Z,58.14
2019-01-02T07:08:45.411Z,57.22
2019-01-02T07:11:16.558Z,57.58
2019-01-02T07:13:47.737Z,54.63
2019-01-02T07:16:18.882Z,53.76
2019-01-02T07:18:50.155Z,54.41
2019-01-02T07:21:21.545Z,53.98
2019-01-02T07:23:52.967Z,53.98
2019-01-02T07:26:24.184Z,54.10
2019-01-02T07:28:55.476Z,54.05
2019-01-02T07:31:26.700Z,54.41
2019-01-02T07:34:31.142Z,54.44
2019-01-02T07:37:47.723Z,54.67
2019-01-02T07:41:14.725Z,54.64
2019-01-02T07:44:37.268Z,54.64
2019-01-02T07:47:43.427Z,54.20
2019-01-02T07:51:02.790Z,53.84
2019-01-02T07:54:29.029Z,52.87
2019-01-02T07:57:49.975Z,52.87
2019-01-02T08:00:57.628Z,52.58
2019-01-02T08:04:08.265Z,53.06
2019-01-02T08:07:18.856Z,50.88
2019-01-02T08:10:35.416Z,50.88
2019-01-02T08:13:46.317Z,53.61
2019-01-02T08:16:49.879Z,54.17
2019-01-02T08:19:56.932Z,54.17
2019-01-02T08:23:11.928Z,53.98
2019-01-02T08:26:23.392Z,53.92
2019-01-02T08:29:35.432Z,53.92
2019-01-02T08:32:52.040Z,53.94
2019-01-02T08:35:55.407Z,54.00
2019-01-02T08:39:04.548Z,54.12
2019-01-02T08:42:10.617Z,52.84
2019-01-02T08:45:31.633Z,51.78
2019-01-02T08:48:35.293Z,50.31
2019-01-02T08:51:45.970Z,50.31
2019-01-02T08:54:43.940Z,49.16
2019-01-02T08:58:13.961Z,48.48
2019-01-02T09:01:38.271Z,48.72
2019-01-02T09:04:53.767Z,49.06
2019-01-02T09:07:58.041Z,49.60
2019-01-02T09:11:07.202Z,50.37
2019-01-02T09:14:33.401Z,49.96
2019-01-02T09:17:41.152Z,49.24
2019-01-02T09:20:52.935Z,48.27
2019-01-02T09:24:12.725Z,48.58
2019-01-02T09:27:14.625Z,47.87
2019-01-02T09:30:37.531Z,47.47
2019-01-02T09:33:37.378Z,47.06
2019-01-02T09:36:46.465Z,46.07
2019-01-02T09:39:38.730Z,45.56
2019-01-02T09:42:57.662Z,43.72
2019-01-02T09:45:54.532Z,41.63
2019-01-02T09:48:50.645Z,41.02
2019-01-02T09:52:04.324Z,40.55
2019-01-02T09:55:24.442Z,40.92
2019-01-02T09:58:45.677Z,40.03
2019-01-02T10:01:35.456Z,40.18
2019-01-02T10:04:46.464Z,40.58
2019-01-02T10:08:01.797Z,40.96
2019-01-02T10:11:09.490Z,42.00
2019-01-02T10:14:36.343Z,42.20
2019-01-02T10:17:48.336Z,42.08
2019-01-02T10:20:44.047Z,42.71
2019-01-02T10:23:31.328Z,42.84
2019-01-02T10:26:31.693Z,42.68
2019-01-02T10:29:34.999Z,41.99
2019-01-02T10:32:46.067Z,41.67
2019-01-02T10:36:19.250Z,41.99
2019-01-02T10:39:20.712Z,41.96
2019-01-02T10:42:09.262Z,41.36
2019-01-02T10:45:11.255Z,41.37
2019-01-02T10:47:56.811Z,41.79
2019-01-02T10:51:11.262Z,41.69
2019-01-02T10:53:52.145Z,41.52
2019-01-02T10:57:05.104Z,41.50
2019-01-02T11:00:15.790Z,41.38
2019-01-02T11:03:18.521Z,41.57
2019-01-02T11:06:45.342Z,41.78
2019-01-02T11:09:59.497Z,41.78
2019-01-02T11:13:14.341Z,41.80
2019-01-02T11:16:35.042Z,40.91
2019-01-02T11:19:52.965Z,39.97
2019-01-02T11:22:50.630Z,40.63
2019-01-02T11:25:52.684Z,41.06
2019-01-02T11:29:02.550Z,41.46
2019-01-02T11:32:28.779Z,41.18
2019-01-02T11:35:20.097Z,41.94
2019-01-02T11:38:43.147Z,40.94
2019-01-02T11:41:42.024Z,39.40
2019-01-02T11:44:49.834Z,37.89
2019-01-02T11:47:20.871Z,38.46
2019-01-02T11:49:52.138Z,39.38
2019-01-02T11:52:23.194Z,40.43
2019-01-02T11:54:54.348Z,39.66
2019-01-02T11:57:25.623Z,35.87
2019-01-02T11:59:56.679Z,31.88
2019-01-02T12:02:34.065Z,31.81
2019-01-02T12:05:00.681Z,32.14
2019-01-02T12:07:32.108Z,34.22
2019-01-02T12:10:03.400Z,34.82
2019-01-02T12:12:34.737Z,35.51
2019-01-02T12:15:07.223Z,37.50
2019-01-02T12:17:38.482Z,37.96
2019-01-02T12:20:11.291Z,39.62
2019-01-02T12:22:42.527Z,39.70
2019-01-02T12:25:13.714Z,40.97
2019-01-02T12:27:44.804Z,40.88
2019-01-02T12:30:16.725Z,41.20
2019-01-02T12:32:47.753Z,41.98
2019-01-02T12:35:18.955Z,42.12
2019-01-02T12:37:50.092Z,42.93
2019-01-02T12:40:21.218Z,42.93
2019-01-02T12:42:52.559Z,43.27
2019-01-02T12:45:23.926Z,43.67
2019-01-02T12:47:55.266Z,44.00
2019-01-02T12:50:26.577Z,44.07
2019-01-02T12:52:59.274Z,44.84
2019-01-02T12:55:30.452Z,44.43
2019-01-02T12:58:01.759Z,44.43
2019-01-02T13:00:39.620Z,45.45
2019-01-02T13:03:48.675Z,45.64
2019-01-02T13:06:47.319Z,45.33
2019-01-02T13:09:55.467Z,44.77
2019-01-02T13:13:03.308Z,44.97
2019-01-02T13:15:43.245Z,44.87
2019-01-02T13:18:50.031Z,45.73
2019-01-02T13:22:07.229Z,46.25
2019-01-02T13:24:53.860Z,45.78
2019-01-02T13:27:45.169Z,46.09
2019-01-02T13:30:57.094Z,46.57
2019-01-02T13:34:33.314Z,47.56
2019-01-02T13:37:20.654Z,47.47
2019-01-02T13:40:37.639Z,47.96
2019-01-02T13:43:38.911Z,48.78
2019-01-02T13:46:46.290Z,49.04
2019-01-02T13:49:44.157Z,50.02
2019-01-02T13:52:15.422Z,50.54
2019-01-02T13:54:46.813Z,50.33
2019-01-02T13:57:17.876Z,50.62
2019-01-02T13:59:50.034Z,50.93
2019-01-02T14:02:21.176Z,51.34
2019-01-02T14:04:52.460Z,52.22
2019-01-02T14:07:23.721Z,52.12
2019-01-02T14:09:55.153Z,52.58
2019-01-02T14:12:26.535Z,53.03
2019-01-02T14:14:57.938Z,53.82
2019-01-02T14:17:31.720Z,53.89
2019-01-02T14:20:03.020Z,53.89
2019-01-02T14:22:34.247Z,54.38
2019-01-02T14:25:05.690Z,54.77
2019-01-02T14:27:36.896Z,55.21
2019-01-02T14:30:08.779Z,55.18
2019-01-02T14:32:39.974Z,56.15
2019-01-02T14:35:11.262Z,56.15
2019-01-02T14:37:42.539Z,56.06
2019-01-02T14:40:13.885Z,56.74
2019-01-02T14:42:45.040Z,56.74
2019-01-02T14:45:16.179Z,57.19
2019-01-02T14:47:47.596Z,57.37
2019-01-02T14:50:18.943Z,58.45
2019-01-02T14:52:51.176Z,59.40
2019-01-02T14:55:22.522Z,59.40
2019-01-02T14:57:53.699Z,59.57
2019-01-02T15:00:24.979Z,59.57
2019-01-02T15:02:56.264Z,59.61
2019-01-02T15:05:27.422Z,59.98
2019-01-02T15:07:58.710Z,61.22
2019-01-02T15:10:29.889Z,61.22
2019-01-02T15:13:01.168Z,60.97
2019-01-02T15:15:33.475Z,60.97
2019-01-02T15:18:04.912Z,61.56
2019-01-02T15:20:36.104Z,61.62
2019-01-02T15:23:07.437Z,61.62
2019-01-02T15:25:38.827Z,61.54
2019-01-02T15:28:11.243Z,62.00
2019-01-02T15:30:42.619Z,62.00
2019-01-02T15:33:14.061Z,62.21
2019-01-02T15:35:48.943Z,62.37
2019-01-02T15:38:18.398Z,62.37
2019-01-02T15:40:49.722Z,62.40
2019-01-02T15:43:21.003Z,62.31
2019-01-02T15:45:53.353Z,62.73
2019-01-02T15:48:24.745Z,62.57
2019-01-02T15:50:57.094Z,62.87
2019-01-02T15:53:28.421Z,62.87
2019-01-02T15:55:59.665Z,62.87
2019-01-02T15:58:30.790Z,63.55
2019-01-02T16:01:02.066Z,63.55
2019-01-02T16:03:33.435Z,62.91
2019-01-02T16:06:04.733Z,62.89
2019-01-02T16:08:35.891Z,62.89
2019-01-02T16:11:07.213Z,62.66
2019-01-02T16:13:38.320Z,63.10
2019-01-02T16:16:09.525Z,63.22
2019-01-02T16:18:41.002Z,62.61
2019-01-02T16:21:12.313Z,62.93
2019-01-02T16:23:43.672Z,62.18
2019-01-02T16:26:14.902Z,62.20
2019-01-02T16:28:46.367Z,61.24
2019-01-02T16:31:17.712Z,60.35
2019-01-02T16:33:48.962Z,60.11
2019-01-02T16:36:20.209Z,59.95
2019-01-02T16:38:51.367Z,59.34
2019-01-02T16:41:22.667Z,59.16
2019-01-02T16:43:54.022Z,58.75
2019-01-02T16:46:25.492Z,57.91
2019-01-02T16:48:56.646Z,57.70
2019-01-02T16:51:27.780Z,56.59
2019-01-02T16:53:59.010Z,56.31
2019-01-02T16:56:30.207Z,56.92
2019-01-02T16:59:01.535Z,56.92
2019-01-02T17:01:32.868Z,56.11
2019-01-02T17:04:04.267Z,55.74
2019-01-02T17:06:35.687Z,55.71
2019-01-02T17:09:08.962Z,55.16
2019-01-02T17:11:40.241Z,54.85
2019-01-02T17:14:11.404Z,54.68
2019-01-02T17:16:42.646Z,55.02
2019-01-02T17:19:14.141Z,54.15
2019-01-02T17:21:45.239Z,54.15
2019-01-02T17:24:18.091Z,55.08
2019-01-02T17:26:49.579Z,54.51
2019-01-02T17:29:24.972Z,55.22
2019-01-02T17:31:56.315Z,55.22
2019-01-02T17:34:27.619Z,54.75
2019-01-02T17:36:59.875Z,54.84
2019-01-02T17:39:31.066Z,54.84
2019-01-02T17:42:02.076Z,54.96
2019-01-02T17:44:34.699Z,56.17
2019-01-02T17:47:07.102Z,56.33
2019-01-02T17:49:38.441Z,56.33
2019-01-02T17:52:09.622Z,56.68
2019-01-02T17:54:40.932Z,56.68
2019-01-02T17:57:12.159Z,56.67
2019-01-02T17:59:44.375Z,56.79
2019-01-02T18:02:16.775Z,56.79
2019-01-02T18:04:47.892Z,57.10
2019-01-02T18:07:19.256Z,57.10
2019-01-02T18:09:50.389Z,57.45
2019-01-02T18:12:21.682Z,56.63
2019-01-02T18:14:53.065Z,56.67
2019-01-02T18:17:24.298Z,56.69
2019-01-02T18:19:55.529Z,56.37
2019-01-02T18:22:26.720Z,57.06
2019-01-02T18:24:58.045Z,57.06
2019-01-02T18:27:29.043Z,57.01
2019-01-02T18:30:00.251Z,57.01
2019-01-02T18:32:31.467Z,57.00
2019-01-02T18:35:02.672Z,57.54
2019-01-02T18:37:33.788Z,57.54
2019-01-02T18:40:07.851Z,57.77
2019-01-02T18:42:38.906Z,57.77
2019-01-02T18:45:10.506Z,57.71
2019-01-02T18:47:41.840Z,57.71
2019-01-02T18:50:12.943Z,57.74
2019-01-02T18:52:44.065Z,57.78
2019-01-02T18:55:15.369Z,58.23
2019-01-02T18:57:46.608Z,58.23
2019-01-02T19:00:17.983Z,57.93
2019-01-02T19:02:49.405Z,57.63
2019-01-02T19:05:20.573Z,57.82
2019-01-02T19:07:53.008Z,57.96
2019-01-02T19:10:26.533Z,58.12
2019-01-02T19:12:57.851Z,58.12
2019-01-02T19:15:29.004Z,58.62
2019-01-02T19:18:00.109Z,58.79
2019-01-02T19:20:31.433Z,58.79
2019-01-02T19:23:02.675Z,59.29
2019-01-02T19:25:33.955Z,59.57
2019-01-02T19:28:05.088Z,59.61
2019-01-02T19:30:36.401Z,60.15
2019-01-02T19:33:07.681Z,60.15
2019-01-02T19:35:39.032Z,59.59
2019-01-02T19:38:10.236Z,60.29
2019-01-02T19:40:41.379Z,60.21
2019-01-02T19:43:12.599Z,60.21
2019-01-02T19:45:43.899Z,60.14
2019-01-02T19:48:16.111Z,59.97
2019-01-02T19:50:47.381Z,59.64
2019-01-02T19:53:18.648Z,59.93
2019-01-02T19:55:49.807Z,59.93
2019-01-02T19:58:21.161Z,60.13
2019-01-02T20:00:52.445Z,60.13
2019-01-02T20:03:23.583Z,60.13
2019-01-02T20:05:54.893Z,60.82
2019-01-02T20:08:26.107Z,60.82
2019-01-02T20:10:57.489Z,60.96
2019-01-02T20:13:28.595Z,60.68
2019-01-02T20:15:59.946Z,61.16
2019-01-02T20:18:31.562Z,60.84
2019-01-02T20:21:02.702Z,60.79
2019-01-02T20:23:33.937Z,60.79
2019-01-02T20:26:05.220Z,60.86
2019-01-02T20:28:36.439Z,60.43
2019-01-02T20:31:07.670Z,60.43
2019-01-02T20:33:38.800Z,61.08
2019-01-02T20:36:10.044Z,60.73
2019-01-02T20:38:41.236Z,60.73
2019-01-02T20:41:14.545Z,60.28
2019-01-02T20:43:45.827Z,60.28
2019-01-02T20:46:17.227Z,60.61
2019-01-02T20:48:48.409Z,60.61
2019-01-02T20:51:20.996Z,60.94
2019-01-02T20:53:53.283Z,60.61
2019-01-02T20:56:25.640Z,61.04
2019-01-02T20:58:56.784Z,60.79
2019-01-02T21:01:27.935Z,60.79
2019-01-02T21:03:59.009Z,61.10
2019-01-02T21:06:30.092Z,61.05
2019-01-02T21:09:01.210Z,60.78
2019-01-02T21:11:34.115Z,61.01
2019-01-02T21:14:05.177Z,60.97
2019-01-02T21:16:36.359Z,61.67
2019-01-02T21:19:07.495Z,61.67
2019-01-02T21:21:38.613Z,61.33
2019-01-02T21:24:09.718Z,61.15
2019-01-02T21:26:41.005Z,61.26
2019-01-02T21:29:12.238Z,61.18
2019-01-02T21:31:43.607Z,61.18
2019-01-02T21:34:14.815Z,61.26
2019-01-02T21:36:46.211Z,61.21
2019-01-02T21:39:17.332Z,60.79
2019-01-02T21:41:48.585Z,60.79
2019-01-02T21:44:19.905Z,60.80
2019-01-02T21:46:51.176Z,60.80
2019-01-02T21:49:22.196Z,60.73
2019-01-02T21:51:53.414Z,60.81
2019-01-02T21:54:24.750Z,60.76
2019-01-02T21:56:55.920Z,61.07
2019-01-02T21:59:27.132Z,61.41
2019-01-02T22:01:58.390Z,61.41
2019-01-02T22:04:29.428Z,61.48
2019-01-02T22:07:00.658Z,61.07
2019-01-02T22:09:31.813Z,61.77
2019-01-02T22:12:02.982Z,61.53
2019-01-02T22:14:34.239Z,62.12
2019-01-02T22:17:07.251Z,61.96
2019-01-02T22:19:38.292Z,61.56
2019-01-02T22:22:09.493Z,61.44
2019-01-02T22:24:40.603Z,61.44
2019-01-02T22:27:11.760Z,61.38
2019-01-02T22:29:42.997Z,61.57
2019-01-02T22:32:14.228Z,60.89
2019-01-02T22:34:45.518Z,60.94
2019-01-02T22:37:16.846Z,61.04
2019-01-02T22:39:48.081Z,61.11
2019-01-02T22:42:19.278Z,60.59
2019-01-02T22:44:50.528Z,61.09
2019-01-02T22:47:21.766Z,61.09
2019-01-02T22:49:52.875Z,60.61
2019-01-02T22:52:24.022Z,61.07
2019-01-02T22:54:55.361Z,60.97
2019-01-02T22:57:26.626Z,60.97
2019-01-02T22:59:57.727Z,61.31
2019-01-02T23:02:40.049Z,61.46
2019-01-02T23:05:49.761Z,60.81
2019-01-02T23:08:38.258Z,61.06
2019-01-02T23:11:23.748Z,61.06
2019-01-02T23:14:29.088Z,61.34
2019-01-02T23:17:31.281Z,61.53
2019-01-02T23:20:19.922Z,62.17
2019-01-02T23:23:09.313Z,61.72
2019-01-02T23:26:00.577Z,61.72
2019-01-02T23:28:57.659Z,61.22
2019-01-02T23:32:06.223Z,61.20
2019-01-02T23:34:56.346Z,62.00
2019-01-02T23:37:47.527Z,61.83
2019-01-02T23:40:36.553Z,61.45
2019-01-02T23:43:26.846Z,61.45
2019-01-02T23:46:15.610Z,61.71
2019-01-02T23:49:04.210Z,61.49
2019-01-02T23:51:48.253Z,61.49
2019-01-02T23:54:37.030Z,61.83
2019-01-02T23:57:35.967Z,61.83
